Time;durP1;ratioP1;P1;durP2;ratioP2;P2;SDS_P1;SDS_P2;PMS_P1;PMS_P2;Temp;Humidity;BMP_temperature;BMP_pressure;BME280_temperature;BME280_humidity;BME280_pressure;Samples;Min_cycle;Max_cycle;Signal;HPM_P1;HPM_P2
2021/01/16 00:00:23;;;;;;;31.58;20.90;;;;;;;1.20;85.62;103013.38;4961425;28;20061;-74
2021/01/16 00:02:48;;;;;;;31.20;19.33;;;;;;;1.24;84.64;103018.56;4956026;28;20101;-74
2021/01/16 00:05:21;;;;;;;26.80;18.48;;;;;;;1.28;83.96;103009.69;4965754;28;20038;-75
2021/01/16 00:07:47;;;;;;;27.13;18.90;;;;;;;1.26;84.02;103006.22;4965102;28;20023;-74
2021/01/16 00:10:14;;;;;;;32.10;18.95;;;;;;;1.05;84.03;102985.69;4941321;28;20521;-74
2021/01/16 00:12:40;;;;;;;29.38;19.35;;;;;;;1.28;83.79;103012.31;4961939;28;20193;-74
2021/01/16 00:15:06;;;;;;;28.45;18.60;;;;;;;1.20;84.54;103000.22;4965779;28;20501;-80
2021/01/16 00:17:31;;;;;;;30.85;18.52;;;;;;;1.23;84.35;103004.53;4970433;28;20405;-80
2021/01/16 00:19:57;;;;;;;28.45;18.77;;;;;;;1.22;85.04;103003.66;4964507;28;20122;-80
2021/01/16 00:22:22;;;;;;;27.25;18.48;;;;;;;0.97;84.82;102960.50;4970116;28;20027;-74
2021/01/16 00:24:48;;;;;;;25.35;18.35;;;;;;;1.04;84.16;102976.06;4962149;28;20478;-74
2021/01/16 00:27:13;;;;;;;29.65;19.02;;;;;;;1.22;84.35;103008.94;4983313;28;20057;-75
2021/01/16 00:29:39;;;;;;;28.75;19.08;;;;;;;1.24;84.27;103005.41;4965514;28;20038;-80
2021/01/16 00:32:04;;;;;;;27.20;18.13;;;;;;;0.61;84.01;102907.00;4969763;28;20205;-74
2021/01/16 00:34:30;;;;;;;28.85;17.98;;;;;;;1.19;84.46;103006.38;4965421;28;20031;-79
2021/01/16 00:36:56;;;;;;;29.40;17.23;;;;;;;1.16;83.98;103002.97;4969788;28;20038;-74
2021/01/16 00:39:21;;;;;;;25.17;17.83;;;;;;;1.14;84.89;103005.66;4967549;28;20046;-75
2021/01/16 00:41:47;;;;;;;28.73;17.80;;;;;;;1.14;84.96;103008.28;4970276;28;20105;-74
2021/01/16 00:44:12;;;;;;;28.25;18.20;;;;;;;1.17;84.70;103013.44;4944310;28;20039;-74
2021/01/16 00:46:38;;;;;;;28.55;18.10;;;;;;;1.12;84.87;102998.66;4963655;28;20046;-74
2021/01/16 00:49:03;;;;;;;28.02;18.20;;;;;;;1.13;85.59;102995.16;4955823;28;20038;-74
2021/01/16 00:51:29;;;;;;;28.17;18.08;;;;;;;1.15;85.36;103004.75;4985219;28;20023;-74
2021/01/16 00:53:54;;;;;;;23.45;16.45;;;;;;;1.16;85.01;102993.28;4985866;28;20398;-74
2021/01/16 00:56:20;;;;;;;25.40;17.33;;;;;;;1.20;85.20;102989.69;4960155;28;20058;-74
2021/01/16 00:58:45;;;;;;;26.80;17.38;;;;;;;1.23;84.82;102986.09;4968690;28;20411;-74
2021/01/16 01:01:11;;;;;;;26.92;16.23;;;;;;;1.24;84.01;102973.84;4957911;28;20047;-74
2021/01/16 01:03:36;;;;;;;23.23;16.73;;;;;;;1.10;83.79;102953.13;4962656;28;20477;-75
2021/01/16 01:06:02;;;;;;;26.70;17.13;;;;;;;1.18;84.27;102970.44;4961671;28;20330;-74
2021/01/16 01:08:28;;;;;;;23.10;16.55;;;;;;;1.22;84.64;102981.78;4951625;28;20031;-80
2021/01/16 01:10:53;;;;;;;23.13;15.40;;;;;;;1.27;83.38;102979.88;4967982;28;20033;-80
2021/01/16 01:13:19;;;;;;;26.50;16.60;;;;;;;1.28;83.09;102976.34;4964961;28;20625;-74
2021/01/16 01:15:44;;;;;;;24.33;15.70;;;;;;;1.26;83.05;102966.78;4969354;28;20053;-74
2021/01/16 01:18:09;;;;;;;23.05;16.10;;;;;;;1.19;84.11;102971.34;4967404;28;20506;-74
2021/01/16 01:20:35;;;;;;;23.67;15.98;;;;;;;1.22;83.52;102968.63;4962413;28;20031;-74
2021/01/16 01:23:01;;;;;;;26.52;17.23;;;;;;;0.98;83.95;102928.88;4985054;28;20027;-75
2021/01/16 01:25:26;;;;;;;24.33;17.30;;;;;;;1.21;84.83;102965.13;4928925;28;20026;-74
2021/01/16 01:27:53;;;;;;;20.83;15.43;;;;;;;0.86;84.81;102895.91;4961724;28;20023;-74
2021/01/16 01:30:20;;;;;;;24.80;16.25;;;;;;;1.13;84.48;102939.91;4966460;28;20030;-80
2021/01/16 01:32:45;;;;;;;25.60;15.90;;;;;;;1.27;84.16;102960.63;4965301;28;20063;-80
2021/01/16 01:35:11;;;;;;;26.83;16.40;;;;;;;1.25;84.30;102955.38;4968179;28;20073;-80
2021/01/16 01:37:41;;;;;;;22.85;16.85;;;;;;;1.23;84.61;102962.44;4970286;28;20062;-80
2021/01/16 01:40:08;;;;;;;23.45;15.85;;;;;;;1.26;84.17;102951.84;4965581;28;20058;-80
2021/01/16 01:42:33;;;;;;;23.65;16.33;;;;;;;1.02;83.77;102909.50;4951398;28;20031;-74
2021/01/16 01:44:59;;;;;;;25.70;15.52;;;;;;;1.28;83.46;102949.19;4960454;28;20514;-75
2021/01/16 01:47:26;;;;;;;21.88;15.50;;;;;;;1.01;83.79;102913.03;4956194;28;20054;-75
2021/01/16 01:49:52;;;;;;;22.60;16.40;;;;;;;1.30;83.77;102958.75;4959478;28;20023;-74
2021/01/16 01:52:18;;;;;;;23.42;15.43;;;;;;;1.33;84.34;102957.81;4941693;28;20038;-75
2021/01/16 01:54:43;;;;;;;22.15;15.82;;;;;;;1.33;83.54;102949.91;4944345;28;20446;-75
2021/01/16 01:57:09;;;;;;;23.35;15.82;;;;;;;1.38;83.28;102953.28;4924325;29;20039;-75
2021/01/16 01:59:36;;;;;;;24.17;15.02;;;;;;;1.19;83.13;102924.00;4932002;28;20802;-75
2021/01/16 02:02:01;;;;;;;20.80;15.15;;;;;;;1.35;83.17;102949.00;4964843;28;20050;-75
2021/01/16 02:04:28;;;;;;;22.60;16.38;;;;;;;1.24;83.44;102937.88;4959752;28;20023;-75
2021/01/16 02:06:54;;;;;;;22.55;16.27;;;;;;;1.25;83.74;102939.59;4932481;28;20026;-80
2021/01/16 02:09:19;;;;;;;22.27;15.63;;;;;;;1.09;83.54;102912.84;4968190;28;20031;-75
2021/01/16 02:11:45;;;;;;;23.92;16.15;;;;;;;1.35;83.72;102950.75;4947546;28;20027;-75
2021/01/16 02:14:10;;;;;;;24.65;16.73;;;;;;;1.30;83.82;102949.97;4956589;28;20033;-75
2021/01/16 02:16:42;;;;;;;24.05;15.60;;;;;;;1.27;84.02;102953.56;4961857;28;20109;-75
2021/01/16 02:19:07;;;;;;;24.33;16.48;;;;;;;1.26;84.19;102941.31;4958956;28;20054;-80
2021/01/16 02:21:36;;;;;;;24.48;16.42;;;;;;;1.31;84.48;102946.44;4966470;28;20023;-75
2021/01/16 02:24:11;;;;;;;25.70;16.50;;;;;;;1.24;84.74;102947.53;4956207;28;20026;-75
2021/01/16 02:27:14;;;;;;;25.30;17.52;;;;;;;1.24;85.03;102942.28;4956602;28;20034;-80
2021/01/16 02:29:40;;;;;;;25.15;16.45;;;;;;;1.21;85.04;102938.81;4962333;28;20035;-80
2021/01/16 02:32:06;;;;;;;25.38;16.23;;;;;;;1.26;85.13;102940.47;4944196;28;20528;-80
2021/01/16 02:34:39;;;;;;;25.05;16.83;;;;;;;1.19;85.15;102918.72;4961236;28;20031;-80
2021/01/16 02:37:41;;;;;;;24.55;17.02;;;;;;;1.26;85.37;102932.56;4944589;28;20671;-75
2021/01/16 02:40:14;;;;;;;25.90;17.08;;;;;;;1.13;84.99;102903.09;4978565;28;20039;-75
2021/01/16 02:43:01;;;;;;;22.67;15.45;;;;;;;1.26;85.15;102927.31;4962930;28;20505;-75
2021/01/16 02:45:30;;;;;;;24.63;15.88;;;;;;;1.03;84.29;102879.69;4955521;28;20062;-75
2021/01/16 02:48:07;;;;;;;22.52;15.07;;;;;;;1.25;83.96;102918.53;4949039;28;20038;-75
2021/01/16 02:50:32;;;;;;;24.00;16.23;;;;;;;1.26;84.99;102919.44;4966615;28;20023;-80
2021/01/16 02:52:58;;;;;;;21.45;15.10;;;;;;;1.28;83.88;102913.22;4934550;28;20391;-75
2021/01/16 02:55:24;;;;;;;22.30;15.32;;;;;;;1.27;84.03;102918.53;4954043;28;20051;-75
2021/01/16 02:57:49;;;;;;;22.25;14.93;;;;;;;1.29;84.03;102912.31;4969133;28;20057;-75
2021/01/16 03:00:17;;;;;;;21.95;15.90;;;;;;;1.32;83.95;102906.09;4949316;29;20031;-75
2021/01/16 03:02:43;;;;;;;21.95;15.07;;;;;;;1.35;83.79;102899.00;4965181;28;20030;-75
2021/01/16 03:05:09;;;;;;;22.63;15.25;;;;;;;1.33;83.78;102899.94;4972364;28;20565;-75
2021/01/16 03:07:34;;;;;;;21.95;15.00;;;;;;;1.32;83.15;102890.31;4981883;28;20121;-75
2021/01/16 03:10:09;;;;;;;22.77;15.68;;;;;;;1.27;83.30;102872.03;4955214;28;20031;-81
2021/01/16 03:12:35;;;;;;;20.20;14.43;;;;;;;1.37;83.36;102888.41;4965251;28;20081;-75
2021/01/16 03:15:14;;;;;;;19.70;14.20;;;;;;;1.20;83.44;102859.97;4967319;28;20034;-75
2021/01/16 03:17:58;;;;;;;23.67;15.50;;;;;;;1.34;83.61;102880.59;4970172;28;20046;-80
2021/01/16 03:20:28;;;;;;;21.55;14.50;;;;;;;1.33;83.79;102874.50;4956886;28;20118;-80
2021/01/16 03:22:54;;;;;;;21.13;14.60;;;;;;;1.20;83.68;102847.66;4968850;28;20069;-75
2021/01/16 03:25:21;;;;;;;21.55;14.98;;;;;;;1.10;83.47;102829.53;4976876;28;20034;-75
2021/01/16 03:27:48;;;;;;;20.58;15.05;;;;;;;1.34;83.75;102870.97;4969516;28;20081;-74
2021/01/16 03:30:13;;;;;;;21.60;15.77;;;;;;;1.34;84.31;102870.09;4970931;28;20077;-75
2021/01/16 03:32:40;;;;;;;23.08;15.30;;;;;;;1.32;84.26;102871.88;4978201;28;20092;-75
2021/01/16 03:35:06;;;;;;;22.45;15.73;;;;;;;1.31;84.38;102867.53;4967885;28;20031;-75
2021/01/16 03:37:32;;;;;;;26.95;15.43;;;;;;;1.32;84.32;102866.63;4969798;28;20027;-75
2021/01/16 03:39:57;;;;;;;22.45;15.57;;;;;;;1.33;84.17;102855.19;4971972;28;20053;-75
2021/01/16 03:42:23;;;;;;;21.95;14.93;;;;;;;1.31;84.17;102851.75;4969300;28;20094;-75
2021/01/16 03:44:48;;;;;;;23.63;15.90;;;;;;;1.34;84.55;102856.94;4970585;28;20057;-80
2021/01/16 03:47:14;;;;;;;22.00;14.73;;;;;;;0.76;83.99;102755.97;4964819;28;20051;-75
2021/01/16 03:49:40;;;;;;;20.48;14.00;;;;;;;1.25;83.91;102828.25;4960393;28;20049;-75
2021/01/16 03:52:05;;;;;;;22.80;14.68;;;;;;;1.30;83.81;102840.38;4964077;28;20493;-75
2021/01/16 03:54:31;;;;;;;20.30;15.35;;;;;;;1.24;83.79;102831.81;4968800;28;20374;-75
2021/01/16 03:56:57;;;;;;;19.80;14.68;;;;;;;1.41;83.63;102852.34;4970142;28;20130;-75
2021/01/16 03:59:23;;;;;;;19.80;14.80;;;;;;;1.41;83.67;102855.00;4970040;28;20066;-75
2021/01/16 04:01:48;;;;;;;20.40;14.15;;;;;;;1.38;83.67;102854.16;4965884;28;20093;-75
2021/01/16 04:04:14;;;;;;;28.42;15.02;;;;;;;1.27;83.61;102831.72;4968350;28;20421;-75
2021/01/16 04:06:39;;;;;;;20.60;14.43;;;;;;;1.40;83.93;102848.00;4954320;28;20034;-75
2021/01/16 04:09:05;;;;;;;20.77;14.60;;;;;;;1.43;82.97;102832.13;4971593;28;20466;-75
2021/01/16 04:11:30;;;;;;;19.80;14.90;;;;;;;1.29;83.38;102809.72;4971420;28;20046;-75
2021/01/16 04:13:56;;;;;;;21.25;14.02;;;;;;;1.42;83.38;102831.28;4963965;28;20038;-75
2021/01/16 04:16:24;;;;;;;20.02;14.07;;;;;;;1.45;82.92;102827.69;4969461;28;20035;-75
2021/01/16 04:18:49;;;;;;;21.48;14.98;;;;;;;1.43;83.11;102821.59;4953208;28;20027;-80
2021/01/16 04:21:15;;;;;;;22.20;15.80;;;;;;;1.44;82.87;102820.69;4985584;28;20157;-80
2021/01/16 04:23:40;;;;;;;21.63;14.25;;;;;;;1.40;83.26;102816.44;4967897;28;20093;-75
2021/01/16 04:26:06;;;;;;;21.92;15.40;;;;;;;1.25;82.74;102792.28;4964821;28;20263;-75
2021/01/16 04:28:31;;;;;;;19.88;14.20;;;;;;;1.41;83.11;102802.38;4968480;28;20049;-75
2021/01/16 04:30:56;;;;;;;21.05;13.48;;;;;;;1.29;82.79;102785.19;4966996;28;20031;-75
2021/01/16 04:33:22;;;;;;;18.30;13.68;;;;;;;1.32;81.53;102783.31;4968358;28;20031;-75
2021/01/16 04:35:47;;;;;;;19.10;13.57;;;;;;;1.48;81.45;102798.66;4969286;28;20027;-74
2021/01/16 04:38:13;;;;;;;21.58;13.77;;;;;;;1.44;82.55;102805.75;4967421;28;20670;-75
2021/01/16 04:40:38;;;;;;;17.88;12.88;;;;;;;1.24;82.11;102763.41;4970572;28;20031;-80
2021/01/16 04:43:04;;;;;;;19.50;13.40;;;;;;;1.51;81.58;102793.28;4970350;28;20047;-80
2021/01/16 04:45:33;;;;;;;19.55;13.73;;;;;;;1.38;81.07;102774.38;4942746;28;20030;-80
2021/01/16 04:47:59;;;;;;;19.75;13.18;;;;;;;1.48;81.36;102785.50;4961903;28;20045;-80
2021/01/16 04:50:28;;;;;;;22.35;14.18;;;;;;;1.21;81.24;102754.69;4963384;28;20038;-80
2021/01/16 04:53:02;;;;;;;17.80;13.38;;;;;;;1.45;81.46;102780.31;4963101;28;20027;-80
2021/01/16 04:55:33;;;;;;;18.48;13.27;;;;;;;1.40;81.87;102788.38;4961132;28;20046;-75
2021/01/16 04:58:04;;;;;;;18.15;13.48;;;;;;;1.37;81.55;102778.78;4945878;28;20490;-74
2021/01/16 05:00:31;;;;;;;19.85;13.20;;;;;;;1.40;81.74;102777.84;4968657;28;20039;-74
2021/01/16 05:02:57;;;;;;;24.63;14.20;;;;;;;1.39;82.37;102776.13;4966778;28;20074;-75
2021/01/16 05:05:22;;;;;;;24.95;14.25;;;;;;;1.36;82.60;102773.56;4946593;28;20019;-74
2021/01/16 05:07:48;;;;;;;17.90;13.75;;;;;;;1.34;82.43;102764.84;4967672;28;20023;-74
2021/01/16 05:10:13;;;;;;;20.10;13.73;;;;;;;1.35;82.03;102761.31;4968611;28;20023;-74
2021/01/16 05:12:52;;;;;;;20.08;13.30;;;;;;;1.11;81.98;102721.69;4975567;28;20033;-74
2021/01/16 05:15:21;;;;;;;18.77;14.02;;;;;;;1.19;81.90;102727.56;4949541;28;20085;-75
2021/01/16 05:18:22;;;;;;;20.58;14.68;;;;;;;1.33;82.99;102757.88;4965787;28;20572;-74
2021/01/16 05:20:48;;;;;;;22.17;14.35;;;;;;;1.32;82.76;102756.13;4959746;28;20058;-74
2021/01/16 05:23:16;;;;;;;21.00;14.50;;;;;;;1.30;82.53;102748.31;4961200;28;20513;-74
2021/01/16 05:25:49;;;;;;;20.60;14.63;;;;;;;1.32;83.36;102751.75;4969091;28;20393;-74
2021/01/16 05:28:16;;;;;;;19.05;13.98;;;;;;;1.34;82.89;102743.81;4958307;28;20249;-74
2021/01/16 05:31:06;;;;;;;20.48;14.30;;;;;;;0.95;82.34;102673.94;4965704;28;20049;-74
2021/01/16 05:33:38;;;;;;;23.33;14.70;;;;;;;1.34;82.58;102738.53;4946517;28;20564;-80
2021/01/16 05:36:05;;;;;;;24.30;16.15;;;;;;;1.34;82.33;102738.53;4964145;28;20030;-80
2021/01/16 05:38:39;;;;;;;23.30;16.05;;;;;;;1.17;82.59;102710.13;4945005;28;20018;-74
2021/01/16 05:41:08;;;;;;;22.02;14.90;;;;;;;1.16;82.74;102704.00;4957919;28;20524;-74
2021/01/16 05:43:34;;;;;;;21.35;14.38;;;;;;;1.34;82.01;102728.03;4965471;28;20035;-75
2021/01/16 05:46:02;;;;;;;20.58;14.85;;;;;;;1.29;81.62;102719.44;4935529;28;20498;-74
2021/01/16 05:48:28;;;;;;;19.93;13.77;;;;;;;1.20;81.97;102699.53;4957614;28;20371;-75
2021/01/16 05:50:55;;;;;;;22.13;14.48;;;;;;;1.17;82.01;102689.09;4969015;28;20034;-78
2021/01/16 05:53:22;;;;;;;19.98;14.07;;;;;;;1.15;81.17;102677.75;4965273;28;20035;-75
2021/01/16 05:55:47;;;;;;;21.52;14.00;;;;;;;1.40;81.27;102725.22;4958551;28;20051;-74
2021/01/16 05:58:14;;;;;;;18.20;13.23;;;;;;;1.39;80.97;102720.88;4967637;28;20086;-75
2021/01/16 06:00:39;;;;;;;19.38;13.70;;;;;;;1.41;80.69;102718.16;4949778;28;20137;-75
2021/01/16 06:03:06;;;;;;;22.48;14.15;;;;;;;1.38;79.86;102709.47;4967252;28;20540;-75
2021/01/16 06:05:32;;;;;;;20.42;13.48;;;;;;;1.44;80.62;102718.09;4961323;28;20541;-75
2021/01/16 06:07:58;;;;;;;21.38;13.82;;;;;;;1.42;80.56;102710.25;4965390;28;20070;-75
2021/01/16 06:10:24;;;;;;;22.10;13.63;;;;;;;1.43;80.42;102701.41;4948379;28;20035;-80
2021/01/16 06:12:50;;;;;;;22.02;12.98;;;;;;;1.37;80.57;102689.31;4969621;28;20062;-75
2021/01/16 06:15:20;;;;;;;19.30;13.32;;;;;;;1.42;79.89;102709.38;4942799;28;20244;-75
2021/01/16 06:17:50;;;;;;;20.88;13.85;;;;;;;1.01;80.25;102638.75;4961945;28;20058;-75
2021/01/16 06:20:20;;;;;;;20.67;13.68;;;;;;;1.04;80.09;102638.63;4943748;28;20106;-75
2021/01/16 06:22:49;;;;;;;19.88;13.77;;;;;;;0.99;80.56;102630.88;4943367;28;20031;-75
2021/01/16 06:25:22;;;;;;;20.10;13.48;;;;;;;1.36;79.66;102695.50;4962866;28;20034;-75
2021/01/16 06:27:48;;;;;;;19.90;11.88;;;;;;;1.36;79.26;102694.66;4959431;28;20027;-75
2021/01/16 06:30:18;;;;;;;17.70;12.27;;;;;;;1.39;78.01;102689.28;4941587;28;20026;-74
2021/01/16 06:32:48;;;;;;;16.45;11.85;;;;;;;1.40;78.89;102691.03;4963309;28;20413;-75
2021/01/16 06:35:14;;;;;;;17.88;12.10;;;;;;;1.42;77.55;102689.22;4960715;28;20122;-75
2021/01/16 06:37:46;;;;;;;17.85;12.00;;;;;;;1.26;77.58;102666.91;4961102;28;20038;-75
2021/01/16 06:40:13;;;;;;;16.80;12.18;;;;;;;1.40;78.14;102691.03;4963546;28;20042;-75
2021/01/16 06:42:38;;;;;;;18.75;12.68;;;;;;;1.17;77.50;102658.38;4969030;28;20555;-75
2021/01/16 06:45:08;;;;;;;19.15;12.52;;;;;;;1.43;76.62;102687.41;4961687;28;20035;-74
2021/01/16 06:47:35;;;;;;;17.80;11.52;;;;;;;1.18;77.22;102654.00;4944613;28;20342;-75
2021/01/16 06:50:01;;;;;;;16.60;12.35;;;;;;;1.33;77.67;102684.22;4952063;28;20065;-75
2021/01/16 06:52:34;;;;;;;17.40;11.98;;;;;;;1.40;76.68;102684.88;4960527;28;20039;-75
2021/01/16 06:55:03;;;;;;;16.65;11.60;;;;;;;1.38;76.34;102680.53;4964692;28;20065;-75
2021/01/16 06:57:28;;;;;;;16.27;11.73;;;;;;;1.41;76.62;102683.97;4956842;28;20434;-75
2021/01/16 06:59:54;;;;;;;18.60;12.00;;;;;;;1.39;75.14;102684.03;4983541;28;20050;-75
2021/01/16 07:02:19;;;;;;;18.42;11.90;;;;;;;1.39;75.34;102681.41;4942551;28;20039;-75
2021/01/16 07:05:01;;;;;;;18.70;11.68;;;;;;;1.42;75.15;102681.31;4963199;28;20515;-75
2021/01/16 07:07:39;;;;;;;20.92;13.10;;;;;;;0.86;75.14;102595.34;4955596;28;20038;-80
2021/01/16 07:10:06;;;;;;;;;;;;;;;1.38;74.75;102685.78;4969306;28;20034;-75
2021/01/16 07:12:31;;;;;;;20.30;12.77;;;;;;;1.37;75.26;102691.09;4974940;28;19961;-75
2021/01/16 07:14:57;;;;;;;22.20;13.63;;;;;;;1.28;75.44;102680.88;4966532;28;20066;-75
2021/01/16 07:17:24;;;;;;;21.58;13.43;;;;;;;1.40;74.25;102692.78;4961839;28;20027;-75
2021/01/16 07:19:50;;;;;;;19.45;12.80;;;;;;;1.09;74.31;102652.50;4962134;28;20490;-80
2021/01/16 07:22:16;;;;;;;18.52;13.32;;;;;;;1.21;75.51;102673.16;4947479;28;20034;-75
2021/01/16 07:24:41;;;;;;;21.05;14.13;;;;;;;1.24;74.28;102673.97;4945858;28;20089;-74
2021/01/16 07:27:08;;;;;;;22.42;14.43;;;;;;;1.27;75.50;102682.63;4941634;28;20109;-79
2021/01/16 07:29:40;;;;;;;22.20;15.10;;;;;;;1.31;74.79;102688.66;4945444;28;20050;-81
2021/01/16 07:32:16;;;;;;;22.33;15.50;;;;;;;1.26;74.93;102680.06;4947878;28;20442;-78
2021/01/16 07:34:47;;;;;;;25.20;15.88;;;;;;;1.27;76.48;102684.41;4966087;28;20054;-74
2021/01/16 07:37:13;;;;;;;23.55;16.10;;;;;;;1.28;76.22;102684.34;4965285;28;20027;-74
2021/01/16 07:39:40;;;;;;;24.48;16.50;;;;;;;1.20;76.14;102668.81;4968127;28;20038;-75
2021/01/16 07:42:15;;;;;;;23.75;16.63;;;;;;;1.28;77.21;102673.84;4954325;28;20038;-74
2021/01/16 07:44:46;;;;;;;24.45;16.08;;;;;;;1.05;77.84;102645.59;4951322;28;20035;-74
2021/01/16 07:47:20;;;;;;;27.80;17.85;;;;;;;1.25;76.83;102667.81;4947344;28;20027;-74
2021/01/16 07:49:57;;;;;;;24.10;17.10;;;;;;;1.24;76.13;102669.56;4969634;28;20035;-74
2021/01/16 07:52:23;;;;;;;22.65;15.27;;;;;;;0.90;76.53;102616.25;4969855;28;20076;-75
2021/01/16 07:55:06;;;;;;;24.95;16.92;;;;;;;1.24;78.07;102660.81;4966681;28;20478;-75
2021/01/16 07:57:33;;;;;;;27.77;17.10;;;;;;;1.25;78.55;102659.94;4940856;28;20158;-75
2021/01/16 08:00:02;;;;;;;28.73;17.45;;;;;;;1.24;77.57;102651.16;4967677;28;20086;-75
2021/01/16 08:02:28;;;;;;;27.63;17.95;;;;;;;1.15;77.00;102630.41;4962318;28;20544;-75
2021/01/16 08:05:06;;;;;;;26.40;17.83;;;;;;;1.22;77.41;102651.22;4953433;28;20035;-76
2021/01/16 08:07:59;;;;;;;25.58;17.20;;;;;;;1.16;77.58;102647.91;4971275;28;20034;-74
2021/01/16 08:10:25;;;;;;;27.23;17.63;;;;;;;1.00;77.18;102616.81;4948161;28;20058;-75
2021/01/16 08:12:51;;;;;;;29.02;17.58;;;;;;;1.21;78.18;102640.75;4969421;28;20041;-74
2021/01/16 08:15:16;;;;;;;27.13;18.25;;;;;;;1.23;78.48;102633.66;4968402;28;20035;-75
2021/01/16 08:17:42;;;;;;;28.88;17.85;;;;;;;1.28;77.56;102636.16;4970177;28;20030;-76
2021/01/16 08:20:12;;;;;;;27.85;18.48;;;;;;;1.26;77.83;102633.56;4953550;28;20118;-77
2021/01/16 08:22:51;;;;;;;28.58;18.52;;;;;;;1.29;78.79;102630.00;4970125;28;20045;-76
2021/01/16 08:25:20;;;;;;;26.95;19.02;;;;;;;1.27;78.79;102629.19;4967346;28;20132;-76
2021/01/16 08:27:50;;;;;;;28.27;19.13;;;;;;;1.31;78.30;102623.75;4947270;28;20023;-76
2021/01/16 08:30:17;;;;;;;27.65;18.48;;;;;;;1.14;78.54;102582.22;4967834;28;20023;-76
2021/01/16 08:33:05;;;;;;;30.00;18.92;;;;;;;1.37;77.00;102617.44;4968660;28;20045;-75
2021/01/16 08:35:37;;;;;;;30.58;18.02;;;;;;;1.41;76.98;102613.81;4965857;28;20033;-76
2021/01/16 08:38:15;;;;;;;31.58;19.48;;;;;;;1.41;77.43;102605.03;4965908;28;20143;-76
2021/01/16 08:40:40;;;;;;;31.13;20.10;;;;;;;1.43;78.09;102611.97;4966710;28;20031;-76
2021/01/16 08:43:06;;;;;;;34.55;20.65;;;;;;;1.41;78.29;102611.19;4965437;28;20514;-76
2021/01/16 08:45:31;;;;;;;31.80;20.48;;;;;;;1.43;78.29;102604.06;4964470;28;20042;-76
2021/01/16 08:47:58;;;;;;;28.25;19.38;;;;;;;1.22;77.92;102567.06;4968996;28;20035;-76
2021/01/16 08:50:32;;;;;;;31.75;19.88;;;;;;;1.47;77.86;102597.81;4940605;28;20078;-76
2021/01/16 08:52:58;;;;;;;29.60;20.52;;;;;;;1.47;78.23;102591.69;4969220;28;20078;-76
2021/01/16 08:55:27;;;;;;;32.22;20.40;;;;;;;1.50;77.72;102591.56;4970592;28;20121;-76
2021/01/16 08:58:09;;;;;;;32.13;20.85;;;;;;;1.40;77.41;102580.53;4963966;28;20113;-77
2021/01/16 09:00:35;;;;;;;31.85;20.70;;;;;;;1.31;76.52;102555.38;4959099;28;20042;-81
2021/01/16 09:03:21;;;;;;;32.33;20.00;;;;;;;1.47;77.03;102566.22;4925519;28;20054;-81
2021/01/16 09:05:47;;;;;;;33.20;20.85;;;;;;;1.59;75.98;102572.00;4963144;28;20034;-82
2021/01/16 09:08:20;;;;;;;31.25;20.23;;;;;;;1.42;76.46;102541.00;4935790;28;20035;-81
2021/01/16 09:10:46;;;;;;;31.00;20.42;;;;;;;1.20;76.06;102504.91;4950241;28;20030;-81
2021/01/16 09:13:21;;;;;;;31.52;20.70;;;;;;;1.64;75.50;102573.56;4981038;28;20409;-80
2021/01/16 09:15:47;;;;;;;32.17;19.73;;;;;;;1.66;75.41;102577.00;4969100;28;20437;-81
2021/01/16 09:18:13;;;;;;;27.70;19.15;;;;;;;1.75;73.82;102577.59;4968887;28;20046;-80
2021/01/16 09:20:43;;;;;;;32.40;20.83;;;;;;;1.73;74.55;102582.91;4967650;28;20027;-81
2021/01/16 09:23:31;;;;;;;28.27;19.65;;;;;;;1.79;74.65;102579.19;4962612;28;20039;-81
2021/01/16 09:26:03;;;;;;;25.15;17.50;;;;;;;1.84;73.45;102575.50;4983045;28;20041;-81
2021/01/16 09:28:48;;;;;;;29.23;19.08;;;;;;;1.86;73.85;102579.84;4961069;28;20034;-76
2021/01/16 09:31:31;;;;;;;28.75;17.75;;;;;;;1.75;72.48;102544.22;4950957;28;20034;-76
2021/01/16 09:34:05;;;;;;;30.55;18.95;;;;;;;1.77;73.33;102545.03;4944484;28;20031;-76
2021/01/16 09:36:45;;;;;;;31.77;19.02;;;;;;;1.83;72.62;102547.44;4950610;28;20053;-81
2021/01/16 09:39:17;;;;;;;29.95;19.48;;;;;;;1.94;73.27;102560.25;4955233;28;20042;-81
2021/01/16 09:41:46;;;;;;;30.08;19.25;;;;;;;1.99;72.34;102563.59;4968607;28;20525;-81
2021/01/16 09:44:12;;;;;;;30.33;19.05;;;;;;;2.05;71.22;102558.97;4960273;28;20060;-76
2021/01/16 09:46:40;;;;;;;29.65;17.92;;;;;;;2.04;71.39;102557.25;4962006;28;20049;-76
2021/01/16 09:49:06;;;;;;;29.30;18.03;;;;;;;1.47;71.62;102466.25;4965364;28;20381;-76
2021/01/16 09:51:34;;;;;;;27.83;18.25;;;;;;;1.29;71.33;102435.34;4968814;28;20082;-76
2021/01/16 09:54:15;;;;;;;32.43;19.93;;;;;;;1.84;72.36;102543.06;4960129;28;20030;-76
2021/01/16 09:56:48;;;;;;;37.22;21.67;;;;;;;1.94;72.70;102570.78;4980193;28;20869;-75
2021/01/16 09:59:22;;;;;;;32.80;20.98;;;;;;;1.99;73.31;102576.75;4955183;28;20057;-76
2021/01/16 10:02:13;;;;;;;31.50;20.23;;;;;;;1.97;72.72;102577.69;4939451;28;20570;-80
2021/01/16 10:04:43;;;;;;;33.53;21.73;;;;;;;2.01;73.10;102568.78;4963223;28;20031;-81
2021/01/16 10:07:13;;;;;;;33.83;22.10;;;;;;;2.02;73.36;102561.75;4965095;28;20030;-81
2021/01/16 10:09:46;;;;;;;34.25;20.60;;;;;;;1.98;74.52;102555.72;4964179;28;20600;-81
2021/01/16 10:12:33;;;;;;;33.50;20.13;;;;;;;1.97;73.54;102554.88;4964964;28;20031;-76
2021/01/16 10:15:05;;;;;;;33.55;19.77;;;;;;;1.85;73.29;102518.44;4963740;28;20031;-76
2021/01/16 10:17:32;;;;;;;31.88;20.67;;;;;;;1.91;73.12;102544.53;4944338;28;20058;-76
2021/01/16 10:20:08;;;;;;;32.95;20.58;;;;;;;1.97;73.34;102538.19;4963682;28;20336;-75
2021/01/16 10:22:34;;;;;;;29.75;20.75;;;;;;;1.97;73.87;102533.81;4965337;28;20077;-81
2021/01/16 10:25:00;;;;;;;31.08;20.27;;;;;;;1.89;73.64;102513.94;4965039;28;20055;-80
2021/01/16 10:27:43;;;;;;;28.38;19.75;;;;;;;2.03;73.11;102531.88;4964646;28;20486;-76
2021/01/16 10:30:19;;;;;;;31.80;20.20;;;;;;;1.99;73.65;102526.72;4962844;28;20051;-76
2021/01/16 10:32:45;;;;;;;29.42;19.58;;;;;;;2.01;73.15;102528.44;4968497;28;20045;-76
2021/01/16 10:35:23;;;;;;;29.52;19.35;;;;;;;2.09;72.25;102521.97;4962837;28;20031;-76
2021/01/16 10:37:49;;;;;;;32.00;19.15;;;;;;;2.10;72.31;102521.03;4960344;28;20033;-77
2021/01/16 10:40:14;;;;;;;29.45;18.63;;;;;;;2.03;73.68;102519.56;4947477;28;20031;-76
2021/01/16 10:42:52;;;;;;;28.02;18.73;;;;;;;2.05;74.07;102507.19;4977837;28;20026;-77
2021/01/16 10:45:18;;;;;;;31.70;18.80;;;;;;;2.07;73.38;102502.72;4979099;28;20070;-81
2021/01/16 10:47:44;;;;;;;31.48;20.15;;;;;;;1.81;73.09;102458.91;4968847;28;20202;-81
2021/01/16 10:50:29;;;;;;;33.50;21.38;;;;;;;1.90;72.48;102470.88;4964726;28;20167;-80
2021/01/16 10:53:02;;;;;;;32.90;20.38;;;;;;;2.02;72.80;102488.03;4953567;28;20082;-76
2021/01/16 10:55:56;;;;;;;31.55;20.02;;;;;;;2.09;72.97;102484.22;4964229;28;20100;-75
2021/01/16 10:58:22;;;;;;;29.50;19.73;;;;;;;1.85;73.02;102428.94;4958774;28;20048;-77
2021/01/16 11:00:52;;;;;;;29.98;18.88;;;;;;;2.18;72.23;102480.38;4958925;28;20552;-77
2021/01/16 11:03:17;;;;;;;30.35;19.00;;;;;;;1.81;72.54;102428.19;4946242;28;20485;-76
2021/01/16 11:05:43;;;;;;;30.05;18.98;;;;;;;2.08;72.06;102467.59;4949559;28;20125;-77
2021/01/16 11:08:10;;;;;;;31.65;20.25;;;;;;;2.04;73.90;102458.06;4927217;28;20030;-76
2021/01/16 11:10:36;;;;;;;26.33;17.70;;;;;;;2.14;72.97;102461.22;4967298;28;20023;-76
2021/01/16 11:13:23;;;;;;;31.08;17.92;;;;;;;2.13;72.01;102452.44;4961901;28;20034;-77
2021/01/16 11:15:53;;;;;;;26.95;17.52;;;;;;;2.05;72.25;102433.44;4964024;28;20049;-76
2021/01/16 11:18:30;;;;;;;29.92;17.95;;;;;;;2.11;72.44;102432.34;4949951;28;20445;-76
2021/01/16 11:21:04;;;;;;;27.65;17.83;;;;;;;2.14;71.88;102425.19;4948441;28;20058;-77
2021/01/16 11:23:34;;;;;;;27.77;17.50;;;;;;;2.02;71.66;102401.13;4974488;28;20108;-77
2021/01/16 11:26:05;;;;;;;29.63;17.92;;;;;;;1.93;71.96;102402.31;4955671;28;20122;-76